Rechercher aéroport 
image banner adimage banner adimage banner ad
image banner ad

0Q5 - Shelter Cove

Situé à Shelter Cove, United States

ICAO - 0Q5, IATA -

Données fournies par Airmate  

Information générale

Coordonnées: N40°1'41" W124°4'28"
Élévation : 73 feet MSL.
Variation magnétique : 17° East
Voir autres Aéroports à California

Données opérationnelles

Special qualification required
Heure actuelle UTC:
Heure actuelle locale:
Météo à : KFOT - Rohnerville ( 59 km )
METAR: KFOT 020515Z AUTO 29005KT 1 1/4SM OVC002 11/11 A3009 RMK AO1
Voir NOTAMs / SUP AIP / TFR affectant cet aéroport [VIEW]
Fréquences de communication: [VIEW]

Pistes:

Identifiant RWYQFULongueur (ft)Largeur (ft)SurfaceLDA (ft)
12340760ASPH
30340760ASPH

Coordonnées de l'aéroport

Adresse: Shelter Cove United States

Vue satellite de 0Q5